sensor_id;sensor_type;location;lat;lon;timestamp;temperature;humidity
21167;DHT22;10741;52.272;9.580;2023-04-12T00:00:34;3.50;99.90
21167;DHT22;10741;52.272;9.580;2023-04-12T00:03:04;3.60;99.90
21167;DHT22;10741;52.272;9.580;2023-04-12T00:05:30;3.70;99.90
21167;DHT22;10741;52.272;9.580;2023-04-12T00:07:56;3.70;99.90
21167;DHT22;10741;52.272;9.580;2023-04-12T00:10:25;3.70;99.90
21167;DHT22;10741;52.272;9.580;2023-04-12T00:12:51;3.70;99.90
21167;DHT22;10741;52.272;9.580;2023-04-12T00:15:17;3.70;99.90
21167;DHT22;10741;52.272;9.580;2023-04-12T00:17:43;3.70;99.90
21167;DHT22;10741;52.272;9.580;2023-04-12T00:20:09;3.70;99.90
21167;DHT22;10741;52.272;9.580;2023-04-12T00:22:39;3.70;99.90
21167;DHT22;10741;52.272;9.580;2023-04-12T00:25:06;3.70;99.90
21167;DHT22;10741;52.272;9.580;2023-04-12T00:27:32;3.70;99.90
21167;DHT22;10741;52.272;9.580;2023-04-12T00:29:58;3.70;99.90
21167;DHT22;10741;52.272;9.580;2023-04-12T00:32:23;3.70;99.90
21167;DHT22;10741;52.272;9.580;2023-04-12T00:34:50;3.70;99.90
21167;DHT22;10741;52.272;9.580;2023-04-12T00:37:15;3.70;99.90
21167;DHT22;10741;52.272;9.580;2023-04-12T00:39:41;3.70;99.90
21167;DHT22;10741;52.272;9.580;2023-04-12T00:42:07;3.70;99.90
21167;DHT22;10741;52.272;9.580;2023-04-12T00:44:33;3.70;99.90
21167;DHT22;10741;52.272;9.580;2023-04-12T00:46:59;3.70;99.90
21167;DHT22;10741;52.272;9.580;2023-04-12T00:49:28;3.70;99.90
21167;DHT22;10741;52.272;9.580;2023-04-12T00:52:04;3.70;99.90
21167;DHT22;10741;52.272;9.580;2023-04-12T00:54:32;3.70;99.90
21167;DHT22;10741;52.272;9.580;2023-04-12T00:57:02;3.70;99.90
21167;DHT22;10741;52.272;9.580;2023-04-12T00:59:28;3.70;99.90
21167;DHT22;10741;52.272;9.580;2023-04-12T01:01:55;3.70;99.90
21167;DHT22;10741;52.272;9.580;2023-04-12T01:04:22;3.70;99.90
21167;DHT22;10741;52.272;9.580;2023-04-12T01:07:09;3.70;99.90
21167;DHT22;10741;52.272;9.580;2023-04-12T01:15:40;4.10;99.90
21167;DHT22;10741;52.272;9.580;2023-04-12T01:18:12;4.20;99.90
21167;DHT22;10741;52.272;9.580;2023-04-12T01:20:49;4.20;99.90
21167;DHT22;10741;52.272;9.580;2023-04-12T01:23:47;4.20;99.90
21167;DHT22;10741;52.272;9.580;2023-04-12T01:28:51;4.30;99.90
21167;DHT22;10741;52.272;9.580;2023-04-12T01:31:18;4.30;99.90
21167;DHT22;10741;52.272;9.580;2023-04-12T01:33:45;4.40;99.90
21167;DHT22;10741;52.272;9.580;2023-04-12T01:36:16;4.40;99.90
21167;DHT22;10741;52.272;9.580;2023-04-12T01:38:42;4.50;99.90
21167;DHT22;10741;52.272;9.580;2023-04-12T01:41:09;4.50;99.90
21167;DHT22;10741;52.272;9.580;2023-04-12T01:43:44;4.50;99.90
21167;DHT22;10741;52.272;9.580;2023-04-12T01:46:12;4.50;99.90
21167;DHT22;10741;52.272;9.580;2023-04-12T01:48:39;4.50;99.90
21167;DHT22;10741;52.272;9.580;2023-04-12T01:54:07;4.50;99.90
21167;DHT22;10741;52.272;9.580;2023-04-12T01:56:40;4.60;99.90
21167;DHT22;10741;52.272;9.580;2023-04-12T01:59:08;4.60;99.90
21167;DHT22;10741;52.272;9.580;2023-04-12T02:01:35;4.60;99.90
21167;DHT22;10741;52.272;9.580;2023-04-12T02:04:01;4.60;99.90
21167;DHT22;10741;52.272;9.580;2023-04-12T02:06:29;4.80;99.90
21167;DHT22;10741;52.272;9.580;2023-04-12T02:09:00;4.80;99.90
21167;DHT22;10741;52.272;9.580;2023-04-12T02:11:27;4.90;99.90
21167;DHT22;10741;52.272;9.580;2023-04-12T02:13:53;5.00;99.90
21167;DHT22;10741;52.272;9.580;2023-04-12T02:16:19;5.00;99.90
21167;DHT22;10741;52.272;9.580;2023-04-12T02:18:45;5.00;99.90
21167;DHT22;10741;52.272;9.580;2023-04-12T02:21:12;5.00;99.90
21167;DHT22;10741;52.272;9.580;2023-04-12T02:23:37;5.10;99.90
21167;DHT22;10741;52.272;9.580;2023-04-12T02:26:03;5.00;99.90
21167;DHT22;10741;52.272;9.580;2023-04-12T02:28:29;5.00;99.90
21167;DHT22;10741;52.272;9.580;2023-04-12T02:30:55;5.00;99.90
21167;DHT22;10741;52.272;9.580;2023-04-12T02:33:21;5.00;99.90
21167;DHT22;10741;52.272;9.580;2023-04-12T02:38:25;5.00;99.90
21167;DHT22;10741;52.272;9.580;2023-04-12T02:40:53;5.20;99.90
21167;DHT22;10741;52.272;9.580;2023-04-12T02:43:19;5.10;99.90
21167;DHT22;10741;52.272;9.580;2023-04-12T02:45:45;5.10;99.90
21167;DHT22;10741;52.272;9.580;2023-04-12T02:48:11;5.10;99.90
21167;DHT22;10741;52.272;9.580;2023-04-12T02:50:37;5.10;99.90
21167;DHT22;10741;52.272;9.580;2023-04-12T02:53:03;5.10;99.90
21167;DHT22;10741;52.272;9.580;2023-04-12T02:55:32;5.10;99.90
21167;DHT22;10741;52.272;9.580;2023-04-12T02:57:57;5.10;99.90
21167;DHT22;10741;52.272;9.580;2023-04-12T03:00:23;5.10;99.90
21167;DHT22;10741;52.272;9.580;2023-04-12T03:02:49;5.10;99.90
21167;DHT22;10741;52.272;9.580;2023-04-12T03:05:16;5.10;99.90
21167;DHT22;10741;52.272;9.580;2023-04-12T03:07:43;5.10;99.90
21167;DHT22;10741;52.272;9.580;2023-04-12T03:10:09;5.10;99.90
21167;DHT22;10741;52.272;9.580;2023-04-12T03:12:37;5.10;99.90
21167;DHT22;10741;52.272;9.580;2023-04-12T03:15:03;5.10;99.90
21167;DHT22;10741;52.272;9.580;2023-04-12T03:17:29;5.10;99.90
21167;DHT22;10741;52.272;9.580;2023-04-12T03:19:55;5.10;99.90
21167;DHT22;10741;52.272;9.580;2023-04-12T03:22:22;5.20;99.90
21167;DHT22;10741;52.272;9.580;2023-04-12T03:24:50;5.20;99.90
21167;DHT22;10741;52.272;9.580;2023-04-12T03:27:16;5.20;99.90
21167;DHT22;10741;52.272;9.580;2023-04-12T03:29:42;5.20;99.90
21167;DHT22;10741;52.272;9.580;2023-04-12T03:32:07;5.30;99.90
21167;DHT22;10741;52.272;9.580;2023-04-12T03:34:33;5.20;99.90
21167;DHT22;10741;52.272;9.580;2023-04-12T03:37:00;5.20;99.90
21167;DHT22;10741;52.272;9.580;2023-04-12T03:39:27;5.30;99.90
21167;DHT22;10741;52.272;9.580;2023-04-12T03:41:53;5.50;99.90
21167;DHT22;10741;52.272;9.580;2023-04-12T03:44:19;5.60;99.90
21167;DHT22;10741;52.272;9.580;2023-04-12T03:46:46;5.70;99.90
21167;DHT22;10741;52.272;9.580;2023-04-12T03:49:12;5.80;99.90
21167;DHT22;10741;52.272;9.580;2023-04-12T03:51:38;5.90;99.90
21167;DHT22;10741;52.272;9.580;2023-04-12T03:54:08;6.00;99.90
21167;DHT22;10741;52.272;9.580;2023-04-12T03:56:34;6.00;99.90
21167;DHT22;10741;52.272;9.580;2023-04-12T03:59:00;5.90;99.90
21167;DHT22;10741;52.272;9.580;2023-04-12T04:01:26;5.90;99.90
21167;DHT22;10741;52.272;9.580;2023-04-12T04:03:51;5.90;99.90
21167;DHT22;10741;52.272;9.580;2023-04-12T04:06:17;5.90;99.90
21167;DHT22;10741;52.272;9.580;2023-04-12T04:08:43;5.90;99.90
21167;DHT22;10741;52.272;9.580;2023-04-12T04:11:11;5.90;99.90
21167;DHT22;10741;52.272;9.580;2023-04-12T04:13:37;5.90;99.90
21167;DHT22;10741;52.272;9.580;2023-04-12T04:16:04;5.90;99.90
21167;DHT22;10741;52.272;9.580;2023-04-12T04:18:31;5.80;99.90
21167;DHT22;10741;52.272;9.580;2023-04-12T04:20:57;5.80;99.90
21167;DHT22;10741;52.272;9.580;2023-04-12T04:23:23;5.80;99.90
21167;DHT22;10741;52.272;9.580;2023-04-12T04:25:49;5.80;99.90
21167;DHT22;10741;52.272;9.580;2023-04-12T04:28:17;5.80;99.90
21167;DHT22;10741;52.272;9.580;2023-04-12T04:30:43;5.80;99.90
21167;DHT22;10741;52.272;9.580;2023-04-12T04:33:11;5.90;99.90
21167;DHT22;10741;52.272;9.580;2023-04-12T04:35:39;5.80;99.90
21167;DHT22;10741;52.272;9.580;2023-04-12T04:38:05;5.80;99.90
21167;DHT22;10741;52.272;9.580;2023-04-12T04:40:32;5.80;99.90
21167;DHT22;10741;52.272;9.580;2023-04-12T04:42:57;5.80;99.90
21167;DHT22;10741;52.272;9.580;2023-04-12T04:45:25;5.80;99.90
21167;DHT22;10741;52.272;9.580;2023-04-12T04:47:55;5.80;99.90
21167;DHT22;10741;52.272;9.580;2023-04-12T04:50:22;5.90;99.90
21167;DHT22;10741;52.272;9.580;2023-04-12T04:52:49;5.90;99.90
21167;DHT22;10741;52.272;9.580;2023-04-12T04:55:17;6.00;99.90
21167;DHT22;10741;52.272;9.580;2023-04-12T04:57:43;6.10;99.90
21167;DHT22;10741;52.272;9.580;2023-04-12T05:00:10;6.10;99.90
21167;DHT22;10741;52.272;9.580;2023-04-12T05:02:36;6.20;99.90
21167;DHT22;10741;52.272;9.580;2023-04-12T05:05:05;6.20;99.90
21167;DHT22;10741;52.272;9.580;2023-04-12T05:07:31;6.30;99.90
21167;DHT22;10741;52.272;9.580;2023-04-12T05:09:57;6.30;99.90
21167;DHT22;10741;52.272;9.580;2023-04-12T05:12:23;6.30;99.90
21167;DHT22;10741;52.272;9.580;2023-04-12T05:14:48;6.30;99.90
21167;DHT22;10741;52.272;9.580;2023-04-12T05:17:14;6.20;99.90
21167;DHT22;10741;52.272;9.580;2023-04-12T05:19:40;6.30;99.90
21167;DHT22;10741;52.272;9.580;2023-04-12T05:22:08;6.30;99.90
21167;DHT22;10741;52.272;9.580;2023-04-12T05:24:33;6.40;99.90
21167;DHT22;10741;52.272;9.580;2023-04-12T05:26:59;6.40;99.90
21167;DHT22;10741;52.272;9.580;2023-04-12T05:29:25;6.30;99.90
21167;DHT22;10741;52.272;9.580;2023-04-12T05:31:50;6.30;99.90
21167;DHT22;10741;52.272;9.580;2023-04-12T05:34:16;6.20;99.90
21167;DHT22;10741;52.272;9.580;2023-04-12T05:36:42;6.10;99.90
21167;DHT22;10741;52.272;9.580;2023-04-12T05:39:07;6.10;99.90
21167;DHT22;10741;52.272;9.580;2023-04-12T05:41:33;6.10;99.90
21167;DHT22;10741;52.272;9.580;2023-04-12T05:43:59;6.10;99.90
21167;DHT22;10741;52.272;9.580;2023-04-12T05:46:25;6.20;99.90
21167;DHT22;10741;52.272;9.580;2023-04-12T05:48:50;6.30;99.90
21167;DHT22;10741;52.272;9.580;2023-04-12T05:51:16;6.40;99.90
21167;DHT22;10741;52.272;9.580;2023-04-12T05:53:42;6.50;99.90
21167;DHT22;10741;52.272;9.580;2023-04-12T05:56:08;6.70;99.90
21167;DHT22;10741;52.272;9.580;2023-04-12T05:58:33;6.70;99.90
21167;DHT22;10741;52.272;9.580;2023-04-12T06:00:59;6.90;99.90
21167;DHT22;10741;52.272;9.580;2023-04-12T06:03:25;7.10;99.90
21167;DHT22;10741;52.272;9.580;2023-04-12T06:05:51;7.20;99.90
21167;DHT22;10741;52.272;9.580;2023-04-12T06:08:17;7.40;99.90
21167;DHT22;10741;52.272;9.580;2023-04-12T06:10:43;7.50;99.90
21167;DHT22;10741;52.272;9.580;2023-04-12T06:13:09;7.60;99.90
21167;DHT22;10741;52.272;9.580;2023-04-12T06:15:34;7.80;99.90
21167;DHT22;10741;52.272;9.580;2023-04-12T06:18:01;7.90;99.90
21167;DHT22;10741;52.272;9.580;2023-04-12T06:20:27;8.00;99.90
21167;DHT22;10741;52.272;9.580;2023-04-12T06:22:53;8.10;99.90
21167;DHT22;10741;52.272;9.580;2023-04-12T06:25:18;8.20;99.90
21167;DHT22;10741;52.272;9.580;2023-04-12T06:27:45;8.20;99.90
21167;DHT22;10741;52.272;9.580;2023-04-12T06:30:10;8.20;99.90
21167;DHT22;10741;52.272;9.580;2023-04-12T06:32:36;8.30;99.90
21167;DHT22;10741;52.272;9.580;2023-04-12T06:35:04;8.40;99.90
21167;DHT22;10741;52.272;9.580;2023-04-12T06:37:30;8.60;99.90
21167;DHT22;10741;52.272;9.580;2023-04-12T06:39:55;8.70;99.90
21167;DHT22;10741;52.272;9.580;2023-04-12T06:42:21;8.90;99.90
21167;DHT22;10741;52.272;9.580;2023-04-12T06:44:47;8.90;99.90
21167;DHT22;10741;52.272;9.580;2023-04-12T06:47:13;8.80;99.90
21167;DHT22;10741;52.272;9.580;2023-04-12T06:49:38;8.80;99.90
21167;DHT22;10741;52.272;9.580;2023-04-12T06:52:04;8.80;99.90
21167;DHT22;10741;52.272;9.580;2023-04-12T06:54:30;8.90;99.90
21167;DHT22;10741;52.272;9.580;2023-04-12T06:56:56;9.00;99.90
21167;DHT22;10741;52.272;9.580;2023-04-12T06:59:22;9.00;99.90
21167;DHT22;10741;52.272;9.580;2023-04-12T07:01:48;9.00;99.90
21167;DHT22;10741;52.272;9.580;2023-04-12T07:04:13;8.90;99.90
21167;DHT22;10741;52.272;9.580;2023-04-12T07:06:41;8.90;99.90
21167;DHT22;10741;52.272;9.580;2023-04-12T07:09:07;8.80;99.90
21167;DHT22;10741;52.272;9.580;2023-04-12T07:11:33;8.80;99.90
21167;DHT22;10741;52.272;9.580;2023-04-12T07:13:58;8.80;99.90
21167;DHT22;10741;52.272;9.580;2023-04-12T07:16:24;8.80;99.90
21167;DHT22;10741;52.272;9.580;2023-04-12T07:18:50;9.00;99.90
21167;DHT22;10741;52.272;9.580;2023-04-12T07:21:16;9.10;99.90
21167;DHT22;10741;52.272;9.580;2023-04-12T07:23:43;9.10;99.90
21167;DHT22;10741;52.272;9.580;2023-04-12T07:26:08;9.20;99.90
21167;DHT22;10741;52.272;9.580;2023-04-12T07:28:35;9.20;99.90
21167;DHT22;10741;52.272;9.580;2023-04-12T07:31:04;9.30;99.90
21167;DHT22;10741;52.272;9.580;2023-04-12T07:33:34;9.50;99.90
21167;DHT22;10741;52.272;9.580;2023-04-12T07:36:03;9.60;99.90
21167;DHT22;10741;52.272;9.580;2023-04-12T07:38:29;9.90;99.90
21167;DHT22;10741;52.272;9.580;2023-04-12T07:40:55;10.10;99.90
21167;DHT22;10741;52.272;9.580;2023-04-12T07:43:22;10.20;99.90
21167;DHT22;10741;52.272;9.580;2023-04-12T07:45:48;10.20;99.90
21167;DHT22;10741;52.272;9.580;2023-04-12T07:48:14;10.10;99.90
21167;DHT22;10741;52.272;9.580;2023-04-12T07:50:40;10.10;99.90
21167;DHT22;10741;52.272;9.580;2023-04-12T07:55:47;10.10;99.90
21167;DHT22;10741;52.272;9.580;2023-04-12T07:58:14;10.10;99.90
21167;DHT22;10741;52.272;9.580;2023-04-12T08:00:41;10.00;99.90
21167;DHT22;10741;52.272;9.580;2023-04-12T08:03:07;10.00;99.90
21167;DHT22;10741;52.272;9.580;2023-04-12T08:05:33;10.00;99.90
21167;DHT22;10741;52.272;9.580;2023-04-12T08:07:59;9.90;99.90
21167;DHT22;10741;52.272;9.580;2023-04-12T08:10:25;9.90;99.90
21167;DHT22;10741;52.272;9.580;2023-04-12T08:12:51;9.90;99.90
21167;DHT22;10741;52.272;9.580;2023-04-12T08:15:16;9.70;99.90
21167;DHT22;10741;52.272;9.580;2023-04-12T08:17:42;9.70;99.90
21167;DHT22;10741;52.272;9.580;2023-04-12T08:20:08;9.70;99.90
21167;DHT22;10741;52.272;9.580;2023-04-12T08:22:34;9.70;99.90
21167;DHT22;10741;52.272;9.580;2023-04-12T08:25:00;9.60;99.90
21167;DHT22;10741;52.272;9.580;2023-04-12T08:27:28;9.60;99.90
21167;DHT22;10741;52.272;9.580;2023-04-12T08:29:54;9.60;99.90
21167;DHT22;10741;52.272;9.580;2023-04-12T08:32:20;9.60;99.90
21167;DHT22;10741;52.272;9.580;2023-04-12T08:34:46;9.50;99.90
21167;DHT22;10741;52.272;9.580;2023-04-12T08:37:12;9.40;99.90
21167;DHT22;10741;52.272;9.580;2023-04-12T08:39:37;9.40;99.90
21167;DHT22;10741;52.272;9.580;2023-04-12T08:42:03;9.20;99.90
21167;DHT22;10741;52.272;9.580;2023-04-12T08:44:37;9.10;99.90
21167;DHT22;10741;52.272;9.580;2023-04-12T08:47:05;8.70;99.90
21167;DHT22;10741;52.272;9.580;2023-04-12T08:49:32;8.50;99.90
21167;DHT22;10741;52.272;9.580;2023-04-12T08:52:01;8.40;99.90
21167;DHT22;10741;52.272;9.580;2023-04-12T08:54:27;8.30;99.90
21167;DHT22;10741;52.272;9.580;2023-04-12T08:56:55;8.20;99.90
21167;DHT22;10741;52.272;9.580;2023-04-12T08:59:27;8.20;99.90
21167;DHT22;10741;52.272;9.580;2023-04-12T09:01:54;8.10;99.90
21167;DHT22;10741;52.272;9.580;2023-04-12T09:04:20;8.10;99.90
21167;DHT22;10741;52.272;9.580;2023-04-12T09:06:46;8.10;99.90
21167;DHT22;10741;52.272;9.580;2023-04-12T09:09:11;8.10;99.90
21167;DHT22;10741;52.272;9.580;2023-04-12T09:11:38;8.10;99.90
21167;DHT22;10741;52.272;9.580;2023-04-12T09:14:14;8.10;99.90
21167;DHT22;10741;52.272;9.580;2023-04-12T09:19:33;8.10;99.90
21167;DHT22;10741;52.272;9.580;2023-04-12T09:21:59;8.10;99.90
21167;DHT22;10741;52.272;9.580;2023-04-12T09:24:26;8.10;99.90
21167;DHT22;10741;52.272;9.580;2023-04-12T09:27:05;8.20;99.90
21167;DHT22;10741;52.272;9.580;2023-04-12T09:29:32;8.20;99.90
21167;DHT22;10741;52.272;9.580;2023-04-12T09:32:03;8.30;99.90
21167;DHT22;10741;52.272;9.580;2023-04-12T09:34:30;8.20;99.90
21167;DHT22;10741;52.272;9.580;2023-04-12T09:36:57;8.20;99.90
21167;DHT22;10741;52.272;9.580;2023-04-12T09:39:32;8.20;99.90
21167;DHT22;10741;52.272;9.580;2023-04-12T09:42:09;8.20;99.90
21167;DHT22;10741;52.272;9.580;2023-04-12T09:44:36;8.10;99.90
21167;DHT22;10741;52.272;9.580;2023-04-12T09:47:03;8.20;99.90
21167;DHT22;10741;52.272;9.580;2023-04-12T09:49:41;8.20;99.90
21167;DHT22;10741;52.272;9.580;2023-04-12T09:52:09;8.30;99.90
21167;DHT22;10741;52.272;9.580;2023-04-12T09:54:46;8.30;99.90
21167;DHT22;10741;52.272;9.580;2023-04-12T09:57:17;8.40;99.90
21167;DHT22;10741;52.272;9.580;2023-04-12T09:59:48;8.50;99.90
21167;DHT22;10741;52.272;9.580;2023-04-12T10:02:26;8.50;99.90
21167;DHT22;10741;52.272;9.580;2023-04-12T10:04:52;8.60;99.90
21167;DHT22;10741;52.272;9.580;2023-04-12T10:07:19;8.60;99.90
21167;DHT22;10741;52.272;9.580;2023-04-12T10:09:45;8.80;99.90
21167;DHT22;10741;52.272;9.580;2023-04-12T10:12:11;8.70;99.90
21167;DHT22;10741;52.272;9.580;2023-04-12T10:14:38;8.70;99.90
21167;DHT22;10741;52.272;9.580;2023-04-12T10:17:04;8.60;99.90
21167;DHT22;10741;52.272;9.580;2023-04-12T10:19:31;8.50;99.90
21167;DHT22;10741;52.272;9.580;2023-04-12T10:22:00;8.60;99.90
21167;DHT22;10741;52.272;9.580;2023-04-12T10:24:27;8.50;99.90
21167;DHT22;10741;52.272;9.580;2023-04-12T10:26:54;8.60;99.90
21167;DHT22;10741;52.272;9.580;2023-04-12T10:31:54;8.60;99.90
21167;DHT22;10741;52.272;9.580;2023-04-12T10:34:27;8.70;99.90
21167;DHT22;10741;52.272;9.580;2023-04-12T10:36:58;8.70;99.90
21167;DHT22;10741;52.272;9.580;2023-04-12T10:39:38;8.70;99.90
21167;DHT22;10741;52.272;9.580;2023-04-12T10:42:29;8.90;99.90
21167;DHT22;10741;52.272;9.580;2023-04-12T10:47:58;9.00;99.90
21167;DHT22;10741;52.272;9.580;2023-04-12T10:50:29;9.00;99.90
21167;DHT22;10741;52.272;9.580;2023-04-12T10:55:46;9.10;99.90
21167;DHT22;10741;52.272;9.580;2023-04-12T11:01:12;9.10;99.90
21167;DHT22;10741;52.272;9.580;2023-04-12T11:04:08;9.10;99.90
21167;DHT22;10741;52.272;9.580;2023-04-12T11:06:57;9.00;99.90
21167;DHT22;10741;52.272;9.580;2023-04-12T11:14:50;8.90;99.90
21167;DHT22;10741;52.272;9.580;2023-04-12T11:19:47;8.90;99.90
21167;DHT22;10741;52.272;9.580;2023-04-12T11:22:15;9.00;99.90
21167;DHT22;10741;52.272;9.580;2023-04-12T11:24:52;8.90;99.90
21167;DHT22;10741;52.272;9.580;2023-04-12T11:27:19;8.90;99.90
21167;DHT22;10741;52.272;9.580;2023-04-12T11:29:50;8.90;99.90
21167;DHT22;10741;52.272;9.580;2023-04-12T11:32:17;8.90;99.90
21167;DHT22;10741;52.272;9.580;2023-04-12T11:34:44;8.90;99.90
21167;DHT22;10741;52.272;9.580;2023-04-12T11:37:11;8.80;99.90
21167;DHT22;10741;52.272;9.580;2023-04-12T11:39:42;8.80;99.90
21167;DHT22;10741;52.272;9.580;2023-04-12T11:42:23;8.80;99.90
21167;DHT22;10741;52.272;9.580;2023-04-12T11:44:49;8.90;99.90
21167;DHT22;10741;52.272;9.580;2023-04-12T11:47:20;8.90;99.90
21167;DHT22;10741;52.272;9.580;2023-04-12T11:49:48;9.00;99.90
21167;DHT22;10741;52.272;9.580;2023-04-12T11:52:16;9.00;99.90
21167;DHT22;10741;52.272;9.580;2023-04-12T11:54:44;9.10;99.90
21167;DHT22;10741;52.272;9.580;2023-04-12T11:57:14;9.10;99.90
21167;DHT22;10741;52.272;9.580;2023-04-12T11:59:45;9.10;99.90
21167;DHT22;10741;52.272;9.580;2023-04-12T12:02:12;9.20;99.90
21167;DHT22;10741;52.272;9.580;2023-04-12T12:04:40;9.30;99.90
21167;DHT22;10741;52.272;9.580;2023-04-12T12:07:07;9.40;99.90
21167;DHT22;10741;52.272;9.580;2023-04-12T12:09:34;9.40;99.90
21167;DHT22;10741;52.272;9.580;2023-04-12T12:12:00;9.40;99.90
21167;DHT22;10741;52.272;9.580;2023-04-12T12:14:26;9.40;99.90
21167;DHT22;10741;52.272;9.580;2023-04-12T12:16:58;9.50;99.90
21167;DHT22;10741;52.272;9.580;2023-04-12T12:19:28;9.60;99.90
21167;DHT22;10741;52.272;9.580;2023-04-12T12:22:13;9.70;99.90
21167;DHT22;10741;52.272;9.580;2023-04-12T12:24:49;9.70;99.90
21167;DHT22;10741;52.272;9.580;2023-04-12T12:27:21;9.80;99.90
21167;DHT22;10741;52.272;9.580;2023-04-12T12:29:54;9.80;99.90
21167;DHT22;10741;52.272;9.580;2023-04-12T12:32:20;9.70;99.90
21167;DHT22;10741;52.272;9.580;2023-04-12T12:34:55;9.50;99.90
21167;DHT22;10741;52.272;9.580;2023-04-12T12:37:26;9.40;99.90
21167;DHT22;10741;52.272;9.580;2023-04-12T12:42:32;9.40;99.90
21167;DHT22;10741;52.272;9.580;2023-04-12T12:44:57;9.50;99.90
21167;DHT22;10741;52.272;9.580;2023-04-12T12:47:23;9.50;99.90
21167;DHT22;10741;52.272;9.580;2023-04-12T12:49:49;9.40;99.90
21167;DHT22;10741;52.272;9.580;2023-04-12T12:52:15;9.40;99.90
21167;DHT22;10741;52.272;9.580;2023-04-12T12:54:40;9.30;99.90
21167;DHT22;10741;52.272;9.580;2023-04-12T12:57:06;9.30;99.90
21167;DHT22;10741;52.272;9.580;2023-04-12T12:59:32;9.20;99.90
21167;DHT22;10741;52.272;9.580;2023-04-12T13:01:58;9.20;99.90
21167;DHT22;10741;52.272;9.580;2023-04-12T13:04:24;9.20;99.90
21167;DHT22;10741;52.272;9.580;2023-04-12T13:06:51;9.20;99.90
21167;DHT22;10741;52.272;9.580;2023-04-12T13:09:16;9.20;99.90
21167;DHT22;10741;52.272;9.580;2023-04-12T13:11:42;9.30;99.90
21167;DHT22;10741;52.272;9.580;2023-04-12T13:14:08;9.30;99.90
21167;DHT22;10741;52.272;9.580;2023-04-12T13:16:33;9.20;99.90
21167;DHT22;10741;52.272;9.580;2023-04-12T13:19:00;9.30;99.90
21167;DHT22;10741;52.272;9.580;2023-04-12T13:21:26;9.30;99.90
21167;DHT22;10741;52.272;9.580;2023-04-12T13:23:52;9.40;99.90
21167;DHT22;10741;52.272;9.580;2023-04-12T13:26:17;9.50;99.90
21167;DHT22;10741;52.272;9.580;2023-04-12T13:28:43;9.60;99.90
21167;DHT22;10741;52.272;9.580;2023-04-12T13:31:09;9.70;99.90
21167;DHT22;10741;52.272;9.580;2023-04-12T13:33:35;9.70;99.90
21167;DHT22;10741;52.272;9.580;2023-04-12T13:36:01;9.70;99.90
21167;DHT22;10741;52.272;9.580;2023-04-12T13:38:26;9.70;99.90
21167;DHT22;10741;52.272;9.580;2023-04-12T13:40:52;9.70;99.90
21167;DHT22;10741;52.272;9.580;2023-04-12T13:43:18;9.70;99.90
21167;DHT22;10741;52.272;9.580;2023-04-12T13:45:44;9.90;99.90
21167;DHT22;10741;52.272;9.580;2023-04-12T13:48:09;10.30;99.90
21167;DHT22;10741;52.272;9.580;2023-04-12T13:50:36;10.80;99.90
21167;DHT22;10741;52.272;9.580;2023-04-12T13:53:01;11.10;99.90
21167;DHT22;10741;52.272;9.580;2023-04-12T13:55:27;11.00;99.90
21167;DHT22;10741;52.272;9.580;2023-04-12T13:57:53;10.80;99.90
21167;DHT22;10741;52.272;9.580;2023-04-12T14:00:19;10.70;99.90
21167;DHT22;10741;52.272;9.580;2023-04-12T14:02:45;10.70;99.90
21167;DHT22;10741;52.272;9.580;2023-04-12T14:05:11;10.50;99.90
21167;DHT22;10741;52.272;9.580;2023-04-12T14:07:37;10.50;99.90
21167;DHT22;10741;52.272;9.580;2023-04-12T14:10:03;10.40;99.90
21167;DHT22;10741;52.272;9.580;2023-04-12T14:12:28;10.30;99.90
21167;DHT22;10741;52.272;9.580;2023-04-12T14:14:54;10.30;99.90
21167;DHT22;10741;52.272;9.580;2023-04-12T14:17:20;10.40;99.90
21167;DHT22;10741;52.272;9.580;2023-04-12T14:19:46;10.40;99.90
21167;DHT22;10741;52.272;9.580;2023-04-12T14:22:11;10.50;99.90
21167;DHT22;10741;52.272;9.580;2023-04-12T14:24:37;10.60;99.90
21167;DHT22;10741;52.272;9.580;2023-04-12T14:27:04;10.60;99.90
21167;DHT22;10741;52.272;9.580;2023-04-12T14:29:30;10.70;99.90
21167;DHT22;10741;52.272;9.580;2023-04-12T14:31:56;10.70;99.90
21167;DHT22;10741;52.272;9.580;2023-04-12T14:34:22;10.70;99.90
21167;DHT22;10741;52.272;9.580;2023-04-12T14:36:47;10.70;99.90
21167;DHT22;10741;52.272;9.580;2023-04-12T14:39:13;10.70;99.90
21167;DHT22;10741;52.272;9.580;2023-04-12T14:41:39;10.70;99.90
21167;DHT22;10741;52.272;9.580;2023-04-12T14:44:05;10.60;99.90
21167;DHT22;10741;52.272;9.580;2023-04-12T14:46:31;10.60;99.90
21167;DHT22;10741;52.272;9.580;2023-04-12T14:48:56;10.60;99.90
21167;DHT22;10741;52.272;9.580;2023-04-12T14:51:25;10.60;99.90
21167;DHT22;10741;52.272;9.580;2023-04-12T14:53:52;10.60;99.90
21167;DHT22;10741;52.272;9.580;2023-04-12T14:56:22;10.70;99.90
21167;DHT22;10741;52.272;9.580;2023-04-12T14:58:53;10.90;99.90
21167;DHT22;10741;52.272;9.580;2023-04-12T15:01:20;11.00;99.90
21167;DHT22;10741;52.272;9.580;2023-04-12T15:03:46;11.10;99.90
21167;DHT22;10741;52.272;9.580;2023-04-12T15:06:12;11.10;99.90
21167;DHT22;10741;52.272;9.580;2023-04-12T15:08:38;11.00;99.90
21167;DHT22;10741;52.272;9.580;2023-04-12T15:11:11;11.00;99.90
21167;DHT22;10741;52.272;9.580;2023-04-12T15:13:40;11.10;99.90
21167;DHT22;10741;52.272;9.580;2023-04-12T15:16:08;11.20;99.90
21167;DHT22;10741;52.272;9.580;2023-04-12T15:18:36;11.30;99.90
21167;DHT22;10741;52.272;9.580;2023-04-12T15:21:07;11.60;99.90
21167;DHT22;10741;52.272;9.580;2023-04-12T15:23:38;11.80;99.90
21167;DHT22;10741;52.272;9.580;2023-04-12T15:26:04;11.90;99.90
21167;DHT22;10741;52.272;9.580;2023-04-12T15:28:32;11.90;99.90
21167;DHT22;10741;52.272;9.580;2023-04-12T15:30:58;11.80;99.90
21167;DHT22;10741;52.272;9.580;2023-04-12T15:33:24;11.70;99.90
21167;DHT22;10741;52.272;9.580;2023-04-12T15:35:52;11.60;99.90
21167;DHT22;10741;52.272;9.580;2023-04-12T15:38:21;11.50;99.90
21167;DHT22;10741;52.272;9.580;2023-04-12T15:40:53;11.40;99.90
21167;DHT22;10741;52.272;9.580;2023-04-12T15:43:20;11.30;99.90
21167;DHT22;10741;52.272;9.580;2023-04-12T15:45:46;11.30;99.90
21167;DHT22;10741;52.272;9.580;2023-04-12T15:48:12;11.20;99.90
21167;DHT22;10741;52.272;9.580;2023-04-12T15:50:38;11.30;99.90
21167;DHT22;10741;52.272;9.580;2023-04-12T15:53:05;11.30;99.90
21167;DHT22;10741;52.272;9.580;2023-04-12T15:55:30;11.30;99.90
21167;DHT22;10741;52.272;9.580;2023-04-12T15:57:56;11.30;99.90
21167;DHT22;10741;52.272;9.580;2023-04-12T16:00:23;11.20;99.90
21167;DHT22;10741;52.272;9.580;2023-04-12T16:02:51;11.20;99.90
21167;DHT22;10741;52.272;9.580;2023-04-12T16:05:22;11.10;99.90
21167;DHT22;10741;52.272;9.580;2023-04-12T16:07:52;11.10;99.90
21167;DHT22;10741;52.272;9.580;2023-04-12T16:10:21;11.00;99.90
21167;DHT22;10741;52.272;9.580;2023-04-12T16:12:48;10.90;99.90
21167;DHT22;10741;52.272;9.580;2023-04-12T16:15:15;10.80;99.90
21167;DHT22;10741;52.272;9.580;2023-04-12T16:17:44;10.60;99.90
21167;DHT22;10741;52.272;9.580;2023-04-12T16:20:14;10.50;99.90
21167;DHT22;10741;52.272;9.580;2023-04-12T16:22:43;10.50;99.90
21167;DHT22;10741;52.272;9.580;2023-04-12T16:25:09;10.50;99.90